createdAt,value
2023-01-02T00:00:49.688Z,11
2023-01-02T00:05:58.580Z,11
2023-01-02T00:11:07.739Z,10.94
2023-01-02T00:16:16.615Z,10.81
2023-01-02T00:21:25.530Z,10.81
2023-01-02T00:26:34.517Z,10.75
2023-01-02T00:31:43.622Z,10.81
2023-01-02T00:36:52.541Z,10.81
2023-01-02T00:47:10.668Z,10.88
2023-01-02T00:52:19.634Z,10.81
2023-01-02T00:57:28.524Z,10.75
2023-01-02T01:02:37.739Z,10.81
2023-01-02T01:07:46.448Z,10.81
2023-01-02T01:12:55.455Z,10.75
2023-01-02T01:18:04.560Z,10.75
2023-01-02T01:23:16.431Z,10.75
2023-01-02T01:28:25.332Z,10.75
2023-01-02T01:33:34.526Z,10.75
2023-01-02T01:38:43.483Z,10.63
2023-01-02T01:43:52.490Z,10.69
2023-01-02T01:49:01.508Z,10.56
2023-01-02T01:54:10.383Z,10.44
2023-01-02T01:59:19.561Z,10.31
2023-01-02T02:04:28.719Z,10.19
2023-01-02T02:09:37.633Z,10.19
2023-01-02T02:14:46.558Z,10
2023-01-02T02:19:55.501Z,9.94
2023-01-02T02:25:04.490Z,9.94
2023-01-02T02:30:13.468Z,10.19
2023-01-02T02:35:25.377Z,10.19
2023-01-02T02:40:34.532Z,10.19
2023-01-02T02:45:43.721Z,10.13
2023-01-02T02:50:52.542Z,10.25
2023-01-02T03:00:59.921Z,10.44
2023-01-02T03:06:09.023Z,10.44
2023-01-02T03:16:26.997Z,10.69
2023-01-02T03:21:35.938Z,10.56
2023-01-02T03:26:44.835Z,10.63
2023-01-02T03:31:53.763Z,10.56
2023-01-02T03:42:11.788Z,10.5
2023-01-02T03:47:20.580Z,10.5
2023-01-02T03:57:38.538Z,10.56
2023-01-02T04:02:47.670Z,10.63
2023-01-02T04:07:56.498Z,10.63
2023-01-02T04:13:05.557Z,10.69
2023-01-02T04:18:14.439Z,10.63
2023-01-02T04:23:23.375Z,10.56
2023-01-02T04:28:32.259Z,10.56
2023-01-02T04:33:41.208Z,10.56
2023-01-02T04:38:50.190Z,10.56
2023-01-02T04:43:59.156Z,10.5
2023-01-02T04:49:08.209Z,10.44
2023-01-02T04:54:17.225Z,10.44
2023-01-02T04:59:26.241Z,10.5
2023-01-02T05:04:35.258Z,10.63
2023-01-02T05:09:44.221Z,10.63
2023-01-02T05:14:53.258Z,10.5
2023-01-02T05:20:02.070Z,10.38
2023-01-02T05:25:11.009Z,10.31
2023-01-02T05:30:20.189Z,10.19
2023-01-02T05:35:32.790Z,10
2023-01-02T05:40:38.277Z,10
2023-01-02T05:45:47.259Z,9.88
2023-01-02T05:50:56.308Z,9.75
2023-01-02T05:56:05.498Z,9.69
2023-01-02T06:01:14.841Z,9.56
2023-01-02T06:06:23.557Z,9.5
2023-01-02T06:11:32.635Z,9.56
2023-01-02T06:16:41.589Z,9.5
2023-01-02T06:21:50.447Z,9.5
2023-01-02T06:32:08.346Z,9.31
2023-01-02T06:37:17.303Z,9.31
2023-01-02T06:42:26.127Z,9.44
2023-01-02T06:47:35.262Z,9.44
2023-01-02T06:52:44.320Z,9.31
2023-01-02T06:57:53.341Z,9.75
2023-01-02T07:03:02.580Z,9.81
2023-01-02T07:08:11.649Z,9.88
2023-01-02T07:13:20.778Z,10
2023-01-02T07:18:29.857Z,10.13
2023-01-02T07:28:48.144Z,10.38
2023-01-02T07:33:57.176Z,10.44
2023-01-02T07:39:06.244Z,10.69
2023-01-02T07:44:15.272Z,10.63
2023-01-02T07:49:24.441Z,10.56
2023-01-02T07:54:33.329Z,10.56
2023-01-02T07:59:42.313Z,10.56
2023-01-02T08:04:51.437Z,10.44
2023-01-02T08:10:00.290Z,10.63
2023-01-02T08:15:09.331Z,10.63
2023-01-02T08:20:18.371Z,10.81
2023-01-02T08:25:27.381Z,10.94
2023-01-02T08:30:36.340Z,11
2023-01-02T08:35:45.349Z,11.06
2023-01-02T08:40:54.251Z,11.19
2023-01-02T08:46:03.407Z,11.31
2023-01-02T08:51:12.631Z,11.56
2023-01-02T08:56:21.631Z,11.63
2023-01-02T09:01:30.789Z,11.94
2023-01-02T09:06:39.823Z,12.19
2023-01-02T09:11:48.800Z,12.31
2023-01-02T09:16:57.762Z,12.31
2023-01-02T09:22:06.889Z,12.44
2023-01-02T09:27:15.740Z,12.37
2023-01-02T09:32:24.961Z,12.44
2023-01-02T09:37:33.807Z,12.56
2023-01-02T09:42:42.906Z,12.75
2023-01-02T09:47:51.954Z,12.94
2023-01-02T09:53:01.382Z,13.06
2023-01-02T09:58:10.435Z,13.06
2023-01-02T10:08:32.079Z,12.75
2023-01-02T10:14:08.785Z,13
2023-01-02T10:18:46.790Z,13.44
2023-01-02T10:23:55.835Z,13.75
2023-01-02T10:29:04.715Z,13.75
2023-01-02T10:34:13.706Z,13.88
2023-01-02T10:39:22.880Z,14.06
2023-01-02T10:44:31.948Z,14.5
2023-01-02T10:49:41.240Z,15.13
2023-01-02T10:54:56.650Z,15.56
2023-01-02T10:59:59.454Z,15.75
2023-01-02T11:05:08.610Z,15.75
2023-01-02T11:10:17.508Z,16
2023-01-02T11:15:26.880Z,16.44
2023-01-02T11:20:36.154Z,16.5
2023-01-02T11:25:44.731Z,16.19
2023-01-02T11:30:53.635Z,15.81
2023-01-02T11:36:02.469Z,15.69
2023-01-02T11:41:11.263Z,15.63
2023-01-02T11:46:20.166Z,15.5
2023-01-02T11:51:28.788Z,15.38
2023-01-02T11:56:37.816Z,15.31
2023-01-02T12:06:55.915Z,15.31
2023-01-02T12:12:04.736Z,15.31
2023-01-02T12:17:13.672Z,15.25
2023-01-02T12:22:22.521Z,15.13
2023-01-02T12:27:31.403Z,15.06
2023-01-02T12:32:40.330Z,14.94
2023-01-02T12:37:49.337Z,14.63
2023-01-02T12:42:58.088Z,14.31
2023-01-02T12:48:06.744Z,14.06
2023-01-02T12:53:15.696Z,13.69
2023-01-02T12:58:24.789Z,13.44
2023-01-02T13:03:33.715Z,13.06
2023-01-02T13:08:42.884Z,13
2023-01-02T13:13:51.795Z,12.94
2023-01-02T13:19:01.257Z,12.88
2023-01-02T13:24:09.683Z,12.94
2023-01-02T13:34:27.758Z,13.06
2023-01-02T13:39:36.789Z,13.06
2023-01-02T13:44:45.823Z,13.06
2023-01-02T13:49:54.880Z,13.13
2023-01-02T13:55:03.705Z,13.19
2023-01-02T14:00:12.640Z,13.13
2023-01-02T14:05:21.583Z,13.13
2023-01-02T14:10:30.432Z,13.13
2023-01-02T14:15:39.485Z,13.13
2023-01-02T14:20:49.949Z,12.94
2023-01-02T14:25:58.816Z,12.88
2023-01-02T14:31:07.740Z,12.75
2023-01-02T14:36:19.236Z,12.56
2023-01-02T14:41:25.612Z,12.5
2023-01-02T14:46:34.551Z,12.37
2023-01-02T14:51:43.595Z,12.37
2023-01-02T14:56:52.607Z,12.81
2023-01-02T15:02:01.883Z,13.25
2023-01-02T15:07:10.934Z,13.31
2023-01-02T15:12:19.883Z,13.38
2023-01-02T15:17:28.973Z,13.38
2023-01-02T15:22:38.003Z,13.19
2023-01-02T15:27:49.727Z,13.06
2023-01-02T15:32:58.728Z,12.94
2023-01-02T15:38:07.707Z,12.88
2023-01-02T15:43:16.702Z,12.75
2023-01-02T15:48:25.737Z,12.75
2023-01-02T15:53:34.694Z,12.69
2023-01-02T15:58:43.597Z,12.56
2023-01-02T16:04:00.959Z,12.5
2023-01-02T16:09:01.597Z,12.44
2023-01-02T16:14:10.829Z,12.5
2023-01-02T16:19:20.012Z,12
2023-01-02T16:24:28.814Z,11.75
2023-01-02T16:29:37.861Z,11.56
2023-01-02T16:39:55.914Z,11.44
2023-01-02T16:45:07.261Z,11.38
2023-01-02T17:05:40.752Z,11
2023-01-02T17:10:49.681Z,11.06
2023-01-02T17:15:58.687Z,11
2023-01-02T17:21:07.804Z,10.94
2023-01-02T17:26:16.881Z,10.81
2023-01-02T17:41:43.815Z,10.69
2023-01-02T17:52:01.707Z,10.56
2023-01-02T17:57:10.935Z,10.5
2023-01-02T18:02:19.970Z,10.56
2023-01-02T18:07:28.821Z,10.63
2023-01-02T18:12:38.060Z,10.56
2023-01-02T18:17:46.906Z,10.56
2023-01-02T18:22:55.782Z,10.56
2023-01-02T18:28:05.003Z,10.63
2023-01-02T18:33:16.401Z,10.56
2023-01-02T18:43:32.111Z,10.5
2023-01-02T18:48:40.975Z,10.56
2023-01-02T18:53:50.016Z,10.5
2023-01-02T18:58:59.115Z,10.38
2023-01-02T19:04:15.058Z,10.38
2023-01-02T19:09:18.011Z,10.25
2023-01-02T19:14:26.079Z,10.06
2023-01-02T19:19:40.393Z,9.94
2023-01-02T19:24:43.789Z,9.81
2023-01-02T19:29:52.557Z,9.63
2023-01-02T19:35:01.518Z,9.5
2023-01-02T19:40:14.719Z,9.38
2023-01-02T19:45:19.487Z,9.25
2023-01-02T19:50:28.485Z,9.31
2023-01-02T19:55:37.452Z,9.13
2023-01-02T20:00:46.384Z,8.81
2023-01-02T20:05:55.527Z,8.56
2023-01-02T20:11:04.416Z,8.31
2023-01-02T20:16:13.531Z,8.19
2023-01-02T20:21:22.361Z,8.06
2023-01-02T20:26:31.294Z,8
2023-01-02T20:31:40.337Z,8.06
2023-01-02T20:36:49.249Z,8.25
2023-01-02T20:41:58.286Z,8.5
2023-01-02T20:47:07.344Z,8.63
2023-01-02T20:52:16.225Z,8.69
2023-01-02T20:57:25.408Z,8.69
2023-01-02T21:02:34.683Z,8.75
2023-01-02T21:07:43.368Z,8.81
2023-01-02T21:12:55.116Z,8.69
2023-01-02T21:18:04.241Z,8.44
2023-01-02T21:23:13.181Z,8.19
2023-01-02T21:28:22.034Z,8.06
2023-01-02T21:38:40.073Z,8.31
2023-01-02T21:43:48.957Z,8.19
2023-01-02T21:48:58.167Z,8.19
2023-01-02T21:54:07.119Z,8.19
2023-01-02T21:59:16.192Z,8.38
2023-01-02T22:04:25.380Z,8.44
2023-01-02T22:09:34.395Z,8.5
2023-01-02T22:14:44.728Z,8.5
2023-01-02T22:19:52.490Z,8.44
2023-01-02T22:25:01.547Z,8.25
2023-01-02T22:30:33.348Z,7.94
2023-01-02T22:35:19.097Z,7.62
2023-01-02T22:40:28.319Z,7.37
2023-01-02T22:45:37.100Z,7.19
2023-01-02T22:50:46.032Z,7
2023-01-02T23:15:58.397Z,6.87
2023-01-02T23:21:07.161Z,6.75
2023-01-02T23:26:16.092Z,6.62
2023-01-02T23:31:25.279Z,6.5
2023-01-02T23:36:34.019Z,6.31
2023-01-02T23:41:42.953Z,6.12
2023-01-02T23:46:52.001Z,6
2023-01-02T23:52:00.907Z,6
2023-01-02T23:57:10.089Z,6.12
